Time;durP1;ratioP1;P1;durP2;ratioP2;P2;SDS_P1;SDS_P2;PMS_P1;PMS_P2;Temp;Humidity;BMP_temperature;BMP_pressure;BME280_temperature;BME280_humidity;BME280_pressure;Samples;Min_cycle;Max_cycle;Signal;HPM_P1;HPM_P2
2022/09/14 00:01:22;;;;;;;;;;;16.50;70.90;;;15.79;65.18;96035.59;4205693;33;19903;-83
2022/09/14 00:03:53;;;;;;;;;;;16.60;70.80;;;15.79;65.46;96030.09;4183445;33;19918;-84
2022/09/14 00:06:22;;;;;;;;;;;16.50;71.00;;;15.79;65.33;96032.03;4183488;33;19961;-83
2022/09/14 00:08:52;;;;;;;;;;;16.50;71.00;;;15.79;65.48;96034.78;4183332;33;19909;-83
2022/09/14 00:11:21;;;;;;;;;;;16.50;71.00;;;15.79;65.43;96037.56;4183623;33;20111;-84
2022/09/14 00:13:49;;;;;;;;;;;16.50;71.00;;;15.78;65.15;96039.47;4206590;33;20083;-83
2022/09/14 00:16:21;;;;;;;;;;;16.50;70.90;;;15.78;65.23;96038.69;4206579;33;19926;-83
2022/09/14 00:18:53;;;;;;;;;;;16.50;71.00;;;15.77;65.48;96031.53;4206289;33;19907;-83
2022/09/14 00:21:21;;;;;;;;;;;16.50;71.20;;;15.77;65.30;96017.72;4206472;33;20047;-83
2022/09/14 00:23:50;;;;;;;;;;;16.50;71.00;;;15.77;65.25;96020.47;4207437;33;19925;-83
2022/09/14 00:26:21;;;;;;;;;;;16.50;70.90;;;15.77;65.34;96014.97;4229931;33;20384;-83
2022/09/14 00:28:51;;;;;;;;;;;16.50;70.90;;;15.76;65.36;96013.31;4206259;33;20088;-83
2022/09/14 00:31:19;;;;;;;;;;;16.50;71.00;;;15.75;65.46;96020.78;4206379;33;19903;-83
2022/09/14 00:33:49;;;;;;;;;;;16.50;71.00;;;15.74;65.44;96027.44;4183133;33;19988;-83
2022/09/14 00:36:22;;;;;;;;;;;16.50;71.10;;;15.76;65.39;96029.88;4206341;33;20255;-83
2022/09/14 00:38:51;;;;;;;;;;;16.50;71.00;;;15.74;65.57;96026.63;4207184;33;19903;-84
2022/09/14 00:41:23;;;;;;;;;;;16.50;71.20;;;15.73;65.55;96011.19;4183064;33;19903;-83
2022/09/14 00:43:57;;;;;;;;;;;16.50;70.90;;;15.73;65.42;96012.00;4183037;33;19907;-83
2022/09/14 00:46:27;;;;;;;;;;;16.50;71.00;;;15.74;65.50;96010.06;4207035;33;19978;-83
2022/09/14 00:49:01;;;;;;;;;;;16.50;71.00;;;15.73;65.43;96008.41;4183099;33;19933;-83
2022/09/14 00:51:32;;;;;;;;;;;16.50;71.10;;;15.72;65.65;96012.31;4206258;33;19910;-83
2022/09/14 00:54:02;;;;;;;;;;;16.50;71.00;;;15.72;65.48;96010.38;4182939;33;20222;-83
2022/09/14 00:56:30;;;;;;;;;;;16.50;71.20;;;15.73;65.43;96005.66;4182922;33;20004;-84
2022/09/14 00:58:59;;;;;;;;;;;16.50;71.00;;;15.71;65.12;96005.97;4205859;33;19903;-83
2022/09/14 01:01:28;;;;;;;;;;;16.50;71.00;;;15.71;65.20;96007.91;4206976;33;19903;-83
2022/09/14 01:03:56;;;;;;;;;;;16.50;71.00;;;15.71;65.60;96013.44;4206945;33;20067;-82
2022/09/14 01:06:34;;;;;;;;;;;16.50;71.10;;;15.70;65.06;96004.34;4182614;33;19910;-83
2022/09/14 01:09:13;;;;;;;;;;;16.50;70.90;;;15.70;65.28;96015.38;4182729;33;20070;-83
2022/09/14 01:11:55;;;;;;;;;;;16.50;70.80;;;15.69;65.32;96018.44;4182333;33;19926;-83
2022/09/14 01:14:30;;;;;;;;;;;16.50;70.90;;;15.69;65.07;96010.16;4229310;33;20135;-83
2022/09/14 01:17:03;;;;;;;;;;;16.50;70.70;;;15.69;65.48;96016.50;4182781;33;20367;-83
2022/09/14 01:19:43;;;;;;;;;;;16.40;71.10;;;15.68;65.48;96006.59;4210617;33;19910;-83
2022/09/14 01:22:17;;;;;;;;;;;16.40;71.10;;;15.68;65.47;96000.25;4182697;33;20031;-83
2022/09/14 01:24:49;;;;;;;;;;;16.40;70.90;;;15.67;65.11;96004.94;4205716;33;20133;-83
2022/09/14 01:27:27;;;;;;;;;;;16.40;70.90;;;15.68;65.52;96005.78;4182457;33;20338;-83
2022/09/14 01:30:05;;;;;;;;;;;16.40;71.10;;;15.65;65.37;96019.06;4206856;33;19903;-83
2022/09/14 01:32:39;;;;;;;;;;;16.40;70.90;;;15.65;65.30;96013.56;4205770;33;19903;-83
2022/09/14 01:35:12;;;;;;;;;;;16.40;70.90;;;15.65;65.32;96007.19;4182521;33;19936;-83
2022/09/14 01:37:42;;;;;;;;;;;16.40;70.90;;;15.65;65.41;95993.41;4182277;33;20134;-83
2022/09/14 01:40:16;;;;;;;;;;;16.40;70.90;;;15.64;65.54;96006.41;4205530;33;20162;-84
2022/09/14 01:42:49;;;;;;;;;;;16.40;71.20;;;15.64;65.30;96000.03;4205478;33;19902;-83
2022/09/14 01:45:18;;;;;;;;;;;16.40;71.00;;;15.63;65.19;95999.25;4205476;33;19913;-83
2022/09/14 01:47:49;;;;;;;;;;;16.40;70.80;;;15.62;66.05;95997.59;4205284;33;20166;-83
2022/09/14 01:50:21;;;;;;;;;;;16.40;71.10;;;15.62;65.35;95983.81;4182229;33;19909;-83
2022/09/14 01:52:53;;;;;;;;;;;16.40;71.10;;;15.62;65.20;95986.56;4182453;33;20282;-83
2022/09/14 01:55:24;;;;;;;;;;;16.40;71.00;;;15.62;65.38;95992.09;4205445;33;19910;-83
2022/09/14 01:57:57;;;;;;;;;;;16.40;70.80;;;15.61;65.77;96001.47;4182131;33;20057;-83
2022/09/14 02:00:26;;;;;;;;;;;16.40;71.20;;;15.61;65.23;96003.44;4206403;33;20443;-83
2022/09/14 02:02:57;;;;;;;;;;;16.40;70.90;;;15.60;65.62;95999.84;4205466;33;20001;-82
2022/09/14 02:05:29;;;;;;;;;;;16.40;71.20;;;15.61;65.94;95997.91;4181981;33;20315;-83
2022/09/14 02:07:57;;;;;;;;;;;16.40;71.20;;;15.60;65.23;95994.31;4181997;33;19903;-83
2022/09/14 02:10:26;;;;;;;;;;;16.40;71.00;;;15.60;65.52;95988.81;4181963;33;20159;-83
2022/09/14 02:12:56;;;;;;;;;;;16.40;71.10;;;15.59;65.52;95987.16;4206269;33;19902;-83
2022/09/14 02:15:28;;;;;;;;;;;16.30;71.00;;;15.59;65.34;95987.16;4205274;33;20162;-82
2022/09/14 02:17:56;;;;;;;;;;;16.30;71.00;;;15.59;65.43;95991.88;4182033;33;20226;-83
2022/09/14 02:20:29;;;;;;;;;;;16.30;71.10;;;15.58;65.64;95996.56;4205085;33;19916;-83
2022/09/14 02:22:58;;;;;;;;;;;16.30;71.30;;;15.58;65.35;95982.78;4181545;33;20040;-83
2022/09/14 02:25:27;;;;;;;;;;;16.30;71.20;;;15.56;65.45;95971.22;4181880;33;19903;-83
2022/09/14 02:27:56;;;;;;;;;;;16.30;71.10;;;15.56;65.53;95974.00;4181708;33;19948;-83
2022/09/14 02:30:25;;;;;;;;;;;16.30;71.20;;;15.56;65.42;95975.94;4205065;33;20114;-83
2022/09/14 02:33:02;;;;;;;;;;;16.30;71.00;;;15.55;65.54;95988.09;4181751;33;20036;-83
2022/09/14 02:35:36;;;;;;;;;;;16.30;71.00;;;15.54;65.29;95979.03;4204230;33;20483;-83
2022/09/14 02:38:08;;;;;;;;;;;16.30;71.10;;;15.54;65.45;95984.53;4204605;33;19910;-83
2022/09/14 02:40:39;;;;;;;;;;;16.30;71.00;;;15.54;65.59;95984.53;4181751;33;19903;-83
2022/09/14 02:43:23;;;;;;;;;;;16.30;71.20;;;15.54;65.38;95986.47;4204967;33;19903;-83
2022/09/14 02:45:56;;;;;;;;;;;16.30;71.00;;;15.52;65.17;95978.50;4181477;33;20401;-83
2022/09/14 02:48:29;;;;;;;;;;;16.30;70.90;;;15.53;65.54;95984.84;4204805;33;20161;-83
2022/09/14 02:51:06;;;;;;;;;;;16.30;71.10;;;15.53;65.42;95985.66;4204820;33;20331;-83
2022/09/14 02:53:38;;;;;;;;;;;16.30;71.10;;;15.52;65.59;95986.78;4204901;33;19903;-83
2022/09/14 02:56:08;;;;;;;;;;;16.30;71.10;;;15.50;65.51;95986.28;4204674;33;19903;-83
2022/09/14 02:58:40;;;;;;;;;;;16.30;71.10;;;15.51;65.54;96004.47;4181482;33;20134;-83
2022/09/14 03:01:10;;;;;;;;;;;16.30;71.30;;;15.51;65.58;96001.69;4204788;33;19902;-83
2022/09/14 03:03:39;;;;;;;;;;;16.30;71.30;;;15.51;65.48;95998.94;4181618;33;19903;-83
2022/09/14 03:06:07;;;;;;;;;;;16.30;71.10;;;15.50;65.65;95994.53;4205597;33;19909;-83
2022/09/14 03:08:36;;;;;;;;;;;16.30;71.30;;;15.49;65.77;95993.72;4204675;33;19902;-83
2022/09/14 03:11:05;;;;;;;;;;;16.30;71.40;;;15.50;65.74;95997.31;4181575;33;20234;-83
2022/09/14 03:13:34;;;;;;;;;;;16.30;71.40;;;15.49;65.67;95987.41;4181560;33;19976;-83
2022/09/14 03:16:06;;;;;;;;;;;16.30;71.30;;;15.48;65.69;95986.59;4204650;33;19903;-83
2022/09/14 03:18:35;;;;;;;;;;;16.30;71.50;;;15.49;65.91;95992.91;4181405;33;20104;-83
2022/09/14 03:21:05;;;;;;;;;;;16.30;71.30;;;15.48;65.67;95992.09;4181604;33;20158;-83
2022/09/14 03:23:36;;;;;;;;;;;16.30;71.40;;;15.48;65.58;95994.03;4181520;33;20121;-83
2022/09/14 03:26:08;;;;;;;;;;;16.30;71.30;;;15.47;65.71;96000.66;4204465;33;19903;-84
2022/09/14 03:28:36;;;;;;;;;;;16.30;71.40;;;15.46;65.57;95996.28;4181382;33;19990;-83
2022/09/14 03:31:08;;;;;;;;;;;16.30;71.30;;;15.46;65.63;95997.13;4204743;33;19902;-83
2022/09/14 03:33:36;;;;;;;;;;;16.30;71.40;;;15.46;65.77;95993.53;4204566;33;19993;-83
2022/09/14 03:36:11;;;;;;;;;;;16.30;71.40;;;15.46;65.84;95997.13;4206920;33;19951;-83
2022/09/14 03:38:43;;;;;;;;;;;16.20;71.30;;;15.45;65.78;95998.22;4183733;33;20062;-83
2022/09/14 03:41:12;;;;;;;;;;;16.20;71.40;;;15.45;65.65;95995.47;4183803;33;19918;-83
2022/09/14 03:43:40;;;;;;;;;;;16.20;71.30;;;15.44;65.83;95996.59;4206967;33;20004;-83
2022/09/14 03:46:12;;;;;;;;;;;16.20;71.40;;;15.44;65.63;96010.38;4206789;33;20093;-84
2022/09/14 03:48:40;;;;;;;;;;;16.20;71.20;;;15.44;65.80;96007.63;4206791;33;20090;-84
2022/09/14 03:51:10;;;;;;;;;;;16.20;71.40;;;15.43;65.80;96016.19;4206917;33;20135;-84
2022/09/14 03:53:38;;;;;;;;;;;16.20;71.50;;;15.43;65.65;96017.03;4183747;33;19903;-83
2022/09/14 03:56:09;;;;;;;;;;;16.20;71.30;;;15.42;65.72;96012.63;4206662;33;20111;-83
2022/09/14 03:58:37;;;;;;;;;;;16.20;71.40;;;15.41;65.77;96013.75;4183419;33;19910;-83
2022/09/14 04:01:06;;;;;;;;;;;16.20;71.40;;;15.42;65.84;96003.56;4206706;33;19903;-83
2022/09/14 04:03:36;;;;;;;;;;;16.20;71.50;;;15.40;65.94;96003.84;4183674;33;19977;-83
2022/09/14 04:06:05;;;;;;;;;;;16.20;71.50;;;15.41;66.04;96004.69;4206685;33;19903;-83
2022/09/14 04:08:34;;;;;;;;;;;16.20;71.80;;;15.40;65.95;96001.09;4183357;33;19911;-83
2022/09/14 04:11:08;;;;;;;;;;;16.20;71.70;;;15.39;65.88;95999.44;4206742;33;19903;-83
2022/09/14 04:13:36;;;;;;;;;;;16.20;71.50;;;15.39;65.86;96004.97;4183386;33;20153;-84
2022/09/14 04:16:05;;;;;;;;;;;16.20;71.50;;;15.38;65.87;96010.81;4183546;33;20115;-83
2022/09/14 04:18:33;;;;;;;;;;;16.20;71.60;;;15.38;65.62;96017.13;4183119;33;19906;-83
2022/09/14 04:21:05;;;;;;;;;;;16.20;71.50;;;15.39;65.68;96017.94;4183323;33;20241;-83
2022/09/14 04:23:33;;;;;;;;;;;16.20;71.50;;;15.38;65.68;96014.34;4207415;33;19910;-84
2022/09/14 04:26:02;;;;;;;;;;;16.20;71.30;;;15.38;65.85;96019.06;4183149;33;19957;-83
2022/09/14 04:28:30;;;;;;;;;;;16.20;71.50;;;15.39;65.86;96020.72;4183067;33;20218;-83
2022/09/14 04:31:00;;;;;;;;;;;16.20;71.50;;;15.38;65.76;96030.09;4207422;33;20151;-83
2022/09/14 04:33:30;;;;;;;;;;;16.20;71.50;;;15.38;66.07;96025.41;4183221;33;19903;-84
2022/09/14 04:36:00;;;;;;;;;;;16.20;71.40;;;15.38;65.73;96030.09;4206508;33;19903;-84
2022/09/14 04:38:30;;;;;;;;;;;16.20;71.50;;;15.38;65.62;96027.34;4207061;33;19903;-83
2022/09/14 04:40:59;;;;;;;;;;;16.20;71.50;;;15.38;65.51;96024.59;4183114;33;20059;-84
2022/09/14 04:43:28;;;;;;;;;;;16.20;71.20;;;15.38;65.84;96036.44;4183013;33;19903;-83
2022/09/14 04:46:02;;;;;;;;;;;16.20;71.40;;;15.38;65.59;96030.09;4229075;33;19903;-84
2022/09/14 04:48:33;;;;;;;;;;;16.20;71.40;;;15.38;65.36;96036.44;4206034;33;19909;-83
2022/09/14 04:51:03;;;;;;;;;;;16.20;71.00;;;15.39;65.16;96031.75;4206316;33;19909;-84
2022/09/14 04:53:33;;;;;;;;;;;16.20;70.90;;;15.40;65.51;96045.22;4206205;33;19910;-83
2022/09/14 04:56:03;;;;;;;;;;;16.20;71.10;;;15.40;65.59;96033.38;4206034;33;19918;-84
2022/09/14 04:58:32;;;;;;;;;;;16.20;71.30;;;15.41;65.71;96043.28;4182822;33;19909;-83
2022/09/14 05:01:02;;;;;;;;;;;16.20;71.10;;;15.42;64.88;96048.50;4182992;33;20018;-83
2022/09/14 05:03:31;;;;;;;;;;;16.20;70.80;;;15.43;65.39;96038.25;4206054;33;20249;-84
2022/09/14 05:06:02;;;;;;;;;;;16.20;70.90;;;15.44;65.17;96046.25;4206007;33;19968;-84
2022/09/14 05:08:32;;;;;;;;;;;16.20;70.70;;;15.44;65.28;96051.78;4182656;33;19932;-83
2022/09/14 05:11:01;;;;;;;;;;;16.30;71.00;;;15.43;65.37;96044.63;4183014;33;19910;-83
2022/09/14 05:13:29;;;;;;;;;;;16.30;71.10;;;15.45;65.21;96049.81;4205884;33;19910;-83
2022/09/14 05:16:06;;;;;;;;;;;16.30;70.80;;;15.42;65.10;96037.47;4182840;33;20125;-83
2022/09/14 05:18:34;;;;;;;;;;;16.30;70.60;;;15.43;65.13;96038.25;4182679;33;20125;-83
2022/09/14 05:21:04;;;;;;;;;;;16.30;70.80;;;15.46;65.15;96037.66;4182712;33;19909;-84
2022/09/14 05:23:34;;;;;;;;;;;16.30;70.80;;;15.47;65.17;96055.84;4206754;33;19902;-83
2022/09/14 05:26:02;;;;;;;;;;;16.30;70.70;;;15.50;65.33;96058.00;4205739;33;20151;-83
2022/09/14 05:28:31;;;;;;;;;;;16.30;70.80;;;15.51;65.24;96056.88;4205787;33;20094;-84
2022/09/14 05:31:00;;;;;;;;;;;16.30;70.50;;;15.53;64.87;96057.41;4205737;33;20081;-83
2022/09/14 05:33:28;;;;;;;;;;;16.30;70.50;;;15.59;64.64;96056.16;4205802;33;19903;-83
2022/09/14 05:36:00;;;;;;;;;;;16.40;70.30;;;15.67;64.58;96048.31;4182547;33;20077;-82
2022/09/14 05:38:29;;;;;;;;;;;16.50;70.00;;;15.75;64.30;96044.81;4206449;33;19902;-83
2022/09/14 05:41:00;;;;;;;;;;;16.60;69.40;;;15.82;63.96;96038.88;4205840;33;20232;-83
2022/09/14 05:43:29;;;;;;;;;;;16.70;69.00;;;15.86;63.75;96043.50;4182401;33;19970;-82
2022/09/14 05:46:01;;;;;;;;;;;16.70;68.70;;;15.90;63.53;96036.25;4182217;33;20365;-83
2022/09/14 05:48:31;;;;;;;;;;;16.80;68.50;;;15.95;63.39;96033.34;4205410;33;19910;-83
2022/09/14 05:51:00;;;;;;;;;;;16.90;68.20;;;16.02;63.25;96048.69;4205557;33;19910;-83
2022/09/14 05:53:28;;;;;;;;;;;16.90;68.10;;;16.06;62.88;96049.72;4205827;33;20079;-83
2022/09/14 05:56:02;;;;;;;;;;;17.00;67.90;;;16.15;63.01;96047.00;4206547;33;20139;-82
2022/09/14 05:58:31;;;;;;;;;;;17.00;67.70;;;16.33;62.94;96042.50;4205385;33;20147;-82
2022/09/14 06:01:06;;;;;;;;;;;17.20;67.40;;;16.50;62.02;96036.28;4206578;33;20056;-83
2022/09/14 06:03:34;;;;;;;;;;;17.40;66.60;;;16.56;61.34;96041.38;4205558;33;20033;-82
2022/09/14 06:06:03;;;;;;;;;;;17.50;65.80;;;16.59;61.11;96039.13;4205309;33;20003;-83
2022/09/14 06:08:32;;;;;;;;;;;17.50;65.60;;;16.61;60.95;96040.44;4205188;33;19902;-83
2022/09/14 06:11:05;;;;;;;;;;;17.50;65.40;;;16.65;61.03;96048.91;4206305;33;20172;-83
2022/09/14 06:13:33;;;;;;;;;;;17.50;65.50;;;16.61;61.49;96047.88;4182106;33;20019;-83
2022/09/14 06:16:03;;;;;;;;;;;17.50;65.90;;;16.64;61.38;96048.09;4154525;34;19910;-83
2022/09/14 06:18:33;;;;;;;;;;;17.50;65.90;;;16.67;61.62;96052.19;4178084;33;19904;-83
2022/09/14 06:21:01;;;;;;;;;;;17.50;66.50;;;16.69;62.05;96060.97;4227996;33;19903;-83
2022/09/14 06:23:30;;;;;;;;;;;17.50;66.90;;;16.69;62.15;96055.44;4205020;33;20109;-83
2022/09/14 06:25:59;;;;;;;;;;;17.50;67.00;;;16.72;62.33;96050.09;4228418;33;20072;-83
2022/09/14 06:28:31;;;;;;;;;;;17.50;67.50;;;16.75;62.70;96056.16;4205236;33;23168;-83
2022/09/14 06:31:02;;;;;;;;;;;17.50;67.80;;;16.78;62.91;96052.75;4200307;33;19903;-83
2022/09/14 06:33:30;;;;;;;;;;;17.50;68.10;;;16.80;62.88;96045.78;4154612;34;19981;-83
2022/09/14 06:36:00;;;;;;;;;;;17.50;68.10;;;16.82;62.73;96049.03;4191687;33;19903;-84
2022/09/14 06:38:29;;;;;;;;;;;17.50;68.10;;;16.84;62.76;96052.31;4203517;33;19903;-83
2022/09/14 06:40:58;;;;;;;;;;;17.60;68.10;;;16.87;62.67;96050.84;4179138;33;20320;-83
2022/09/14 06:43:28;;;;;;;;;;;17.60;68.10;;;16.87;62.74;96048.91;4179683;33;19910;-83
2022/09/14 06:45:59;;;;;;;;;;;17.60;68.10;;;16.90;62.56;96046.63;4199323;33;20193;-83
2022/09/14 06:48:27;;;;;;;;;;;17.60;68.10;;;16.92;62.69;96036.09;4176091;34;19903;-84
2022/09/14 06:50:56;;;;;;;;;;;17.60;68.10;;;16.93;62.75;96032.19;4177227;34;20500;-84
2022/09/14 06:53:25;;;;;;;;;;;17.60;68.10;;;16.95;62.64;96041.81;4176324;34;20266;-83
2022/09/14 06:55:53;;;;;;;;;;;17.60;68.20;;;16.98;62.58;96041.19;4185790;33;19909;-83
2022/09/14 06:58:21;;;;;;;;;;;17.70;68.20;;;17.01;62.64;96042.50;4204947;33;19910;-83
2022/09/14 07:00:50;;;;;;;;;;;17.70;68.30;;;17.05;62.60;96042.69;4204256;33;20451;-83
2022/09/14 07:03:20;;;;;;;;;;;17.70;68.20;;;17.06;62.59;96039.63;4181002;33;20097;-84
2022/09/14 07:05:49;;;;;;;;;;;17.70;68.30;;;17.08;62.54;96042.06;4203942;33;19911;-83
2022/09/14 07:08:17;;;;;;;;;;;17.70;68.30;;;17.14;62.54;96049.09;4180710;33;19910;-84
2022/09/14 07:10:55;;;;;;;;;;;17.80;68.30;;;17.15;62.57;96039.69;4206911;33;20210;-84
2022/09/14 07:13:24;;;;;;;;;;;17.80;68.40;;;17.16;62.71;96036.56;4183633;33;19903;-83
2022/09/14 07:15:52;;;;;;;;;;;17.80;68.30;;;17.18;62.57;96044.53;4206451;33;19990;-83
2022/09/14 07:18:27;;;;;;;;;;;17.80;68.30;;;17.18;62.54;96039.84;4206257;33;19910;-83
2022/09/14 07:20:55;;;;;;;;;;;17.80;68.00;;;17.19;62.42;96040.66;4206132;33;19989;-83
2022/09/14 07:23:24;;;;;;;;;;;17.80;68.10;;;17.18;62.46;96047.31;4183289;33;19934;-84
2022/09/14 07:26:01;;;;;;;;;;;17.80;68.10;;;17.21;62.22;96045.88;4207236;33;20272;-83
2022/09/14 07:28:29;;;;;;;;;;;17.80;68.00;;;17.22;62.16;96045.56;4207220;33;20128;-84
2022/09/14 07:30:58;;;;;;;;;;;17.80;68.00;;;17.25;62.13;96038.56;4206416;33;19910;-84
2022/09/14 07:33:28;;;;;;;;;;;17.90;68.10;;;17.27;62.13;96044.59;4206258;33;19909;-84
2022/09/14 07:36:05;;;;;;;;;;;17.80;67.90;;;17.28;61.85;96035.16;4183114;33;20030;-83
2022/09/14 07:38:34;;;;;;;;;;;17.90;67.90;;;17.29;61.94;96034.03;4182910;33;20030;-84
2022/09/14 07:41:02;;;;;;;;;;;17.90;67.70;;;17.30;61.69;96030.13;4206987;33;19903;-84
2022/09/14 07:43:31;;;;;;;;;;;17.90;67.40;;;17.28;61.65;96032.41;4167320;33;20125;-84
2022/09/14 07:46:02;;;;;;;;;;;17.90;67.20;;;17.30;61.39;96035.66;4199234;33;19982;-84
2022/09/14 07:48:33;;;;;;;;;;;17.90;67.20;;;17.29;61.14;96032.09;4197866;33;20341;-84
2022/09/14 07:51:02;;;;;;;;;;;17.90;67.10;;;17.30;61.45;96030.94;4155204;34;19922;-84
2022/09/14 07:53:31;;;;;;;;;;;17.90;67.00;;;17.29;61.38;96034.88;4178836;34;19907;-83
2022/09/14 07:56:00;;;;;;;;;;;17.90;67.00;;;17.28;61.16;96032.41;4201159;33;20098;-84
2022/09/14 07:58:29;;;;;;;;;;;17.90;66.80;;;17.29;61.01;96028.50;4178008;34;20076;-84
2022/09/14 08:01:01;;;;;;;;;;;17.90;66.70;;;17.27;61.28;96039.91;4178131;34;19910;-83
2022/09/14 08:03:30;;;;;;;;;;;17.90;66.70;;;17.26;61.19;96029.13;4177903;34;19904;-84
2022/09/14 08:06:01;;;;;;;;;;;17.90;66.70;;;17.25;61.35;96035.78;4177949;34;20087;-84
2022/09/14 08:08:30;;;;;;;;;;;17.90;66.60;;;17.24;61.21;96039.69;4177819;33;20226;-85
2022/09/14 08:11:04;;;;;;;;;;;17.90;66.70;;;17.22;61.16;96028.16;4178057;34;20205;-84
2022/09/14 08:13:34;;;;;;;;;;;17.90;66.70;;;17.22;61.04;96036.44;4177944;34;20137;-84
2022/09/14 08:16:03;;;;;;;;;;;17.90;66.40;;;17.20;60.82;96024.88;4201367;33;20219;-84
2022/09/14 08:18:32;;;;;;;;;;;17.90;66.20;;;17.17;60.99;96021.63;4179439;34;19918;-84
2022/09/14 08:21:05;;;;;;;;;;;17.80;66.20;;;17.18;61.25;96027.94;4200759;33;20077;-84
2022/09/14 08:23:34;;;;;;;;;;;17.80;66.40;;;17.16;61.02;96019.97;4178623;34;19912;-83
2022/09/14 08:26:05;;;;;;;;;;;17.80;66.70;;;17.14;61.53;96022.25;4178571;34;19903;-84
2022/09/14 08:28:35;;;;;;;;;;;17.80;66.80;;;17.14;61.55;96016.72;4178436;34;20033;-84
2022/09/14 08:31:07;;;;;;;;;;;17.80;67.00;;;17.12;61.70;96012.63;4178578;34;19903;-84
2022/09/14 08:33:42;;;;;;;;;;;17.80;67.10;;;17.11;61.89;96011.81;4178477;34;20069;-83
2022/09/14 08:36:13;;;;;;;;;;;17.80;67.20;;;17.09;62.23;96014.09;4178390;34;20078;-84
2022/09/14 08:38:41;;;;;;;;;;;17.80;67.40;;;17.08;62.13;96019.94;4178397;34;19911;-84
2022/09/14 08:41:19;;;;;;;;;;;17.80;67.40;;;17.08;62.22;96022.69;4178672;33;19957;-84
2022/09/14 08:43:47;;;;;;;;;;;17.80;67.50;;;17.06;62.33;96014.72;4178408;34;20138;-84
2022/09/14 08:46:29;;;;;;;;;;;17.80;67.60;;;17.05;62.53;96013.09;4178107;34;19903;-84
2022/09/14 08:48:57;;;;;;;;;;;17.80;67.80;;;17.05;62.52;96007.56;4201411;33;20127;-84
2022/09/14 08:51:27;;;;;;;;;;;17.80;67.90;;;17.02;62.71;96019.25;4189654;33;20311;-83
2022/09/14 08:53:56;;;;;;;;;;;17.70;68.10;;;17.01;62.75;96012.09;4189800;33;19973;-83
2022/09/14 08:56:26;;;;;;;;;;;17.70;68.10;;;17.00;62.67;96010.44;4179036;34;19903;-84
2022/09/14 08:59:18;;;;;;;;;;;17.70;68.00;;;16.99;62.98;95998.59;4178164;34;20126;-84
2022/09/14 09:01:52;;;;;;;;;;;17.70;68.30;;;17.00;62.96;95999.38;4182647;33;19903;-84
2022/09/14 09:04:46;;;;;;;;;;;17.70;68.40;;;17.00;62.92;95989.16;4205981;33;20139;-84
2022/09/14 09:07:20;;;;;;;;;;;17.70;68.60;;;16.98;63.49;95974.00;4194996;33;20147;-83
2022/09/14 09:09:50;;;;;;;;;;;17.70;68.80;;;16.98;63.33;95987.81;4199572;33;19903;-84
2022/09/14 09:12:21;;;;;;;;;;;17.70;68.60;;;16.97;63.43;95972.41;4193561;33;20123;-83
2022/09/14 09:14:52;;;;;;;;;;;17.70;68.70;;;16.96;63.44;95979.06;4179158;34;20085;-84
2022/09/14 09:17:29;;;;;;;;;;;17.70;68.80;;;16.94;63.38;95981.28;4177865;34;19903;-84
2022/09/14 09:20:04;;;;;;;;;;;17.70;68.80;;;16.94;63.44;95986.81;4177964;34;19927;-83
2022/09/14 09:22:38;;;;;;;;;;;17.70;68.80;;;16.92;63.12;95986.31;4178104;34;20096;-84
2022/09/14 09:25:10;;;;;;;;;;;17.70;68.80;;;16.91;63.46;95987.44;4178079;34;20051;-84
2022/09/14 09:27:38;;;;;;;;;;;17.70;68.80;;;16.90;63.48;95988.56;4177861;34;19903;-84
2022/09/14 09:30:12;;;;;;;;;;;17.70;68.80;;;16.87;63.47;95981.75;4177883;34;19911;-84
2022/09/14 09:32:41;;;;;;;;;;;17.60;68.70;;;16.86;63.61;95980.91;4154657;34;20382;-84
2022/09/14 09:35:28;;;;;;;;;;;17.60;68.70;;;16.85;63.39;95984.00;4177734;34;19958;-84
2022/09/14 09:38:09;;;;;;;;;;;17.60;68.60;;;16.83;63.77;95981.56;4154793;34;19959;-84
2022/09/14 09:40:43;;;;;;;;;;;17.60;68.60;;;16.81;63.41;95970.00;4177870;34;19903;-84
2022/09/14 09:43:13;;;;;;;;;;;17.60;68.70;;;16.79;63.19;95966.72;4177653;34;19993;-84
2022/09/14 09:45:51;;;;;;;;;;;17.60;68.80;;;16.80;63.44;95970.28;4177564;34;19903;-84
2022/09/14 09:48:22;;;;;;;;;;;17.60;68.70;;;16.80;63.50;95978.59;4174540;34;19974;-84
2022/09/14 09:51:03;;;;;;;;;;;17.60;68.70;;;16.78;63.54;95970.63;4150267;34;19911;-84
2022/09/14 09:53:36;;;;;;;;;;;17.60;68.60;;;16.77;63.67;95969.00;4176284;33;20126;-84
2022/09/14 09:56:05;;;;;;;;;;;17.60;68.70;;;16.78;63.71;95969.81;4177664;34;19904;-84
2022/09/14 09:58:36;;;;;;;;;;;17.60;68.70;;;16.76;63.40;95961.84;4177517;34;20123;-84
2022/09/14 10:01:06;;;;;;;;;;;17.60;68.60;;;16.76;63.62;95961.03;4177644;34;20110;-84
2022/09/14 10:03:37;;;;;;;;;;;17.50;68.70;;;16.74;63.41;95953.03;4154592;34;19903;-84
2022/09/14 10:06:08;;;;;;;;;;;17.50;68.60;;;16.73;63.38;95951.41;4154681;34;19984;-83
2022/09/14 10:08:43;;;;;;;;;;;17.50;68.70;;;16.72;63.16;95949.75;4177475;34;20358;-84
2022/09/14 10:11:37;;;;;;;;;;;17.50;68.70;;;16.71;63.61;95959.22;4154671;34;20207;-83
2022/09/14 10:14:05;;;;;;;;;;;17.50;68.60;;;16.70;63.46;95960.34;4135496;34;20096;-84
2022/09/14 10:16:37;;;;;;;;;;;17.50;68.70;;;16.72;63.44;95952.53;4154429;34;19910;-84
2022/09/14 10:19:13;;;;;;;;;;;17.50;68.80;;;16.71;63.16;95950.94;4154524;34;20273;-84
2022/09/14 10:22:04;;;;;;;;;;;17.50;68.60;;;16.71;63.29;95948.97;4177484;33;20106;-84
2022/09/14 10:24:35;;;;;;;;;;;17.50;68.60;;;16.72;63.45;95945.06;4154452;34;20401;-84
2022/09/14 10:27:25;;;;;;;;;;;17.50;68.70;;;16.72;63.45;95947.00;4177293;34;19986;-84
2022/09/14 10:29:53;;;;;;;;;;;17.50;68.60;;;16.71;63.29;95948.16;4153790;34;19903;-84
2022/09/14 10:32:24;;;;;;;;;;;17.50;68.60;;;16.70;63.44;95949.28;4192785;33;19971;-84
2022/09/14 10:34:53;;;;;;;;;;;17.50;68.70;;;16.70;63.41;95955.63;4154340;34;19910;-84
2022/09/14 10:37:32;;;;;;;;;;;17.50;68.50;;;16.70;63.37;95949.28;4154353;34;20105;-84
2022/09/14 10:40:15;;;;;;;;;;;17.50;68.60;;;16.68;63.39;95949.59;4178137;34;20152;-84
2022/09/14 10:42:52;;;;;;;;;;;17.50;68.70;;;16.68;63.39;95937.72;4154488;34;19957;-84
2022/09/14 10:45:25;;;;;;;;;;;17.50;68.60;;;16.67;63.71;95936.09;4176593;34;20386;-84
2022/09/14 10:48:32;;;;;;;;;;;17.50;68.60;;;16.67;63.12;95936.09;4177919;34;20320;-84
2022/09/14 10:51:13;;;;;;;;;;;17.40;68.40;;;16.66;63.20;95928.94;4177176;34;19903;-84
2022/09/14 10:53:49;;;;;;;;;;;17.50;68.50;;;16.66;63.29;95938.03;4154298;34;19998;-84
2022/09/14 10:56:22;;;;;;;;;;;17.40;68.50;;;16.66;63.11;95937.22;4154130;34;20445;-84
2022/09/14 10:59:04;;;;;;;;;;;17.50;68.40;;;16.66;63.26;95931.69;4177018;34;20438;-84
2022/09/14 11:02:09;;;;;;;;;;;17.40;68.40;;;16.66;63.34;95923.41;4176978;34;19914;-83
2022/09/14 11:04:52;;;;;;;;;;;17.40;68.30;;;16.66;63.09;95906.81;4173979;34;20126;-84
2022/09/14 11:07:24;;;;;;;;;;;17.40;68.30;;;16.66;62.94;95912.34;4153973;34;19903;-84
2022/09/14 11:09:56;;;;;;;;;;;17.40;68.10;;;16.65;63.05;95906.00;4176864;33;20151;-84
2022/09/14 11:12:30;;;;;;;;;;;17.40;68.00;;;16.64;62.78;95898.03;4176975;34;20141;-84
2022/09/14 11:15:08;;;;;;;;;;;17.40;67.90;;;16.64;62.76;95895.25;4177994;34;20073;-84
2022/09/14 11:18:06;;;;;;;;;;;17.40;67.90;;;16.63;62.37;95890.88;4177704;34;20027;-84
2022/09/14 11:20:43;;;;;;;;;;;17.40;67.60;;;16.63;62.11;95890.88;4153063;34;20161;-84
2022/09/14 11:23:25;;;;;;;;;;;17.40;67.20;;;16.62;62.28;95900.28;4177714;34;19907;-84
2022/09/14 11:25:57;;;;;;;;;;;17.40;67.50;;;16.62;62.39;95895.59;4153904;34;20119;-84
2022/09/14 11:28:29;;;;;;;;;;;17.40;67.50;;;16.60;62.07;95892.31;4176705;34;19908;-83
2022/09/14 11:31:07;;;;;;;;;;;17.40;67.20;;;16.59;62.04;95885.16;4176655;34;20379;-84
2022/09/14 11:33:40;;;;;;;30.10;10.57;;;17.40;67.20;;;18.08;100.00;62537.16;4197325;34;20362;-85
2022/09/14 11:36:16;;;;;;;24.42;9.55;;;17.40;67.50;;;-151.14;100.00;62537.16;4244023;33;20035;-85
2022/09/14 11:38:49;;;;;;;23.92;8.35;;;17.40;67.50;;;16.60;100.00;62537.16;4222579;33;20347;-85